sensor_id;sensor_type;location;lat;lon;timestamp;pressure;altitude;pressure_sealevel;temperature;humidity
50087;BME280;35967;50.718;7.050;2024-03-02T00:03:57;99369.69;;;7.60;84.75
50087;BME280;35967;50.718;7.050;2024-03-02T00:14:23;99357.34;;;7.71;83.89
50087;BME280;35967;50.718;7.050;2024-03-02T00:24:32;99355.50;;;7.77;83.41
50087;BME280;35967;50.718;7.050;2024-03-02T00:34:36;99337.41;;;7.81;83.24
50087;BME280;35967;50.718;7.050;2024-03-02T00:44:40;99333.88;;;7.85;82.75
50087;BME280;35967;50.718;7.050;2024-03-02T00:54:43;99333.19;;;7.80;82.97
50087;BME280;35967;50.718;7.050;2024-03-02T01:04:48;99332.47;;;7.75;82.58
50087;BME280;35967;50.718;7.050;2024-03-02T01:14:51;99334.84;;;7.81;82.09
50087;BME280;35967;50.718;7.050;2024-03-02T01:24:55;99318.94;;;7.71;82.01
50087;BME280;35967;50.718;7.050;2024-03-02T01:34:58;99322.22;;;7.77;81.94
50087;BME280;35967;50.718;7.050;2024-03-02T01:45:04;99312.09;;;7.72;81.55
50087;BME280;35967;50.718;7.050;2024-03-02T01:55:07;99302.03;;;7.66;81.54
50087;BME280;35967;50.718;7.050;2024-03-02T02:05:14;99305.44;;;7.66;81.21
50087;BME280;35967;50.718;7.050;2024-03-02T02:15:24;99288.34;;;7.67;81.65
50087;BME280;35967;50.718;7.050;2024-03-02T02:25:29;99279.44;;;7.52;81.91
50087;BME280;35967;50.718;7.050;2024-03-02T02:35:32;99276.38;;;7.40;82.40
50087;BME280;35967;50.718;7.050;2024-03-02T02:45:37;99273.09;;;7.37;83.00
50087;BME280;35967;50.718;7.050;2024-03-02T02:55:40;99272.25;;;7.36;82.92
50087;BME280;35967;50.718;7.050;2024-03-02T03:05:46;99268.78;;;7.37;83.16
50087;BME280;35967;50.718;7.050;2024-03-02T03:15:49;99264.72;;;7.32;83.16
50087;BME280;35967;50.718;7.050;2024-03-02T03:25:54;99264.84;;;7.27;83.40
50087;BME280;35967;50.718;7.050;2024-03-02T03:35:57;99275.31;;;7.19;83.96
50087;BME280;35967;50.718;7.050;2024-03-02T03:46:02;99275.97;;;7.26;83.27
50087;BME280;35967;50.718;7.050;2024-03-02T03:56:05;99280.06;;;7.32;83.43
50087;BME280;35967;50.718;7.050;2024-03-02T04:06:09;99275.03;;;7.29;82.77
50087;BME280;35967;50.718;7.050;2024-03-02T04:16:13;99293.16;;;7.22;82.83
50087;BME280;35967;50.718;7.050;2024-03-02T04:26:17;99295.50;;;7.00;83.57
50087;BME280;35967;50.718;7.050;2024-03-02T04:36:24;99312.00;;;6.90;84.66
50087;BME280;35967;50.718;7.050;2024-03-02T04:46:28;99327.16;;;6.66;86.77
50087;BME280;35967;50.718;7.050;2024-03-02T04:56:31;99331.63;;;6.58;88.40
50087;BME280;35967;50.718;7.050;2024-03-02T05:06:48;99346.53;;;6.75;86.25
50087;BME280;35967;50.718;7.050;2024-03-02T05:16:54;99348.31;;;6.40;89.64
50087;BME280;35967;50.718;7.050;2024-03-02T05:26:59;99355.56;;;6.22;89.49
50087;BME280;35967;50.718;7.050;2024-03-02T05:37:04;99351.66;;;6.09;89.92
50087;BME280;35967;50.718;7.050;2024-03-02T05:47:09;99354.50;;;6.31;88.31
50087;BME280;35967;50.718;7.050;2024-03-02T05:57:12;99365.41;;;6.38;88.17
50087;BME280;35967;50.718;7.050;2024-03-02T06:07:37;99359.53;;;6.34;87.75
50087;BME280;35967;50.718;7.050;2024-03-02T06:17:40;99357.91;;;6.31;88.43
50087;BME280;35967;50.718;7.050;2024-03-02T06:27:44;99366.25;;;6.38;88.25
50087;BME280;35967;50.718;7.050;2024-03-02T06:37:47;99384.03;;;6.43;88.25
50087;BME280;35967;50.718;7.050;2024-03-02T06:47:52;99379.84;;;6.39;88.98
50087;BME280;35967;50.718;7.050;2024-03-02T06:57:55;99372.03;;;6.45;88.76
50087;BME280;35967;50.718;7.050;2024-03-02T07:07:59;99375.25;;;6.85;87.78
50087;BME280;35967;50.718;7.050;2024-03-02T07:18:03;99397.53;;;7.13;86.50
50087;BME280;35967;50.718;7.050;2024-03-02T07:28:08;99407.75;;;7.42;84.65
50087;BME280;35967;50.718;7.050;2024-03-02T07:38:11;99404.59;;;7.89;82.53
50087;BME280;35967;50.718;7.050;2024-03-02T07:48:15;99409.81;;;8.15;81.06
50087;BME280;35967;50.718;7.050;2024-03-02T07:58:19;99411.34;;;8.73;78.99
50087;BME280;35967;50.718;7.050;2024-03-02T08:08:24;99416.25;;;8.79;77.97
50087;BME280;35967;50.718;7.050;2024-03-02T08:18:27;99415.44;;;9.26;76.96
50087;BME280;35967;50.718;7.050;2024-03-02T08:28:32;99420.31;;;9.34;76.39
50087;BME280;35967;50.718;7.050;2024-03-02T08:38:36;99430.38;;;10.06;73.89
50087;BME280;35967;50.718;7.050;2024-03-02T08:48:40;99429.69;;;9.81;73.26
50087;BME280;35967;50.718;7.050;2024-03-02T08:58:43;99428.94;;;9.99;72.53
50087;BME280;35967;50.718;7.050;2024-03-02T09:08:48;99424.03;;;10.37;71.27
50087;BME280;35967;50.718;7.050;2024-03-02T09:18:53;99421.84;;;10.49;70.52
50087;BME280;35967;50.718;7.050;2024-03-02T09:28:58;99428.63;;;10.70;68.11
50087;BME280;35967;50.718;7.050;2024-03-02T09:39:01;99421.19;;;10.85;68.11
50087;BME280;35967;50.718;7.050;2024-03-02T09:49:07;99416.97;;;11.03;67.29
50087;BME280;35967;50.718;7.050;2024-03-02T09:59:10;99420.75;;;11.53;65.89
50087;BME280;35967;50.718;7.050;2024-03-02T10:09:26;99427.72;;;11.88;63.11
50087;BME280;35967;50.718;7.050;2024-03-02T10:19:31;99428.25;;;11.58;64.59
50087;BME280;35967;50.718;7.050;2024-03-02T10:29:39;99416.50;;;12.08;63.86
50087;BME280;35967;50.718;7.050;2024-03-02T10:39:42;99413.38;;;12.36;64.02
50087;BME280;35967;50.718;7.050;2024-03-02T10:49:49;99390.25;;;12.17;64.43
50087;BME280;35967;50.718;7.050;2024-03-02T10:59:56;99395.34;;;12.01;64.14
50087;BME280;35967;50.718;7.050;2024-03-02T11:10:05;99393.91;;;11.94;64.51
50087;BME280;35967;50.718;7.050;2024-03-02T11:20:11;99411.53;;;11.66;65.09
50087;BME280;35967;50.718;7.050;2024-03-02T11:30:51;99391.41;;;11.92;64.42
50087;BME280;35967;50.718;7.050;2024-03-02T11:40:59;99376.66;;;12.82;62.79
50087;BME280;35967;50.718;7.050;2024-03-02T11:51:04;99382.41;;;12.87;62.38
50087;BME280;35967;50.718;7.050;2024-03-02T12:01:07;99377.72;;;12.44;63.56
50087;BME280;35967;50.718;7.050;2024-03-02T12:11:13;99342.78;;;12.55;64.32
50087;BME280;35967;50.718;7.050;2024-03-02T12:21:18;99334.75;;;12.93;62.53
50087;BME280;35967;50.718;7.050;2024-03-02T12:31:23;99326.69;;;12.83;63.02
50087;BME280;35967;50.718;7.050;2024-03-02T12:41:26;99321.66;;;12.80;63.38
50087;BME280;35967;50.718;7.050;2024-03-02T12:51:31;99305.94;;;13.33;60.85
50087;BME280;35967;50.718;7.050;2024-03-02T13:01:34;99299.88;;;13.34;61.24
50087;BME280;35967;50.718;7.050;2024-03-02T13:11:39;99302.59;;;13.31;60.39
50087;BME280;35967;50.718;7.050;2024-03-02T13:21:42;99281.66;;;13.51;59.94
50087;BME280;35967;50.718;7.050;2024-03-02T13:31:47;99280.00;;;13.34;60.33
50087;BME280;35967;50.718;7.050;2024-03-02T13:41:51;99264.84;;;13.44;60.06
50087;BME280;35967;50.718;7.050;2024-03-02T13:52:01;99259.19;;;13.68;59.02
50087;BME280;35967;50.718;7.050;2024-03-02T14:02:06;99250.78;;;13.64;57.60
50087;BME280;35967;50.718;7.050;2024-03-02T14:12:10;99235.97;;;13.52;57.96
50087;BME280;35967;50.718;7.050;2024-03-02T14:22:15;99235.66;;;13.26;58.49
50087;BME280;35967;50.718;7.050;2024-03-02T14:32:20;99240.19;;;13.22;58.89
50087;BME280;35967;50.718;7.050;2024-03-02T14:42:23;99231.06;;;13.01;58.83
50087;BME280;35967;50.718;7.050;2024-03-02T14:52:28;99223.72;;;12.93;60.37
50087;BME280;35967;50.718;7.050;2024-03-02T15:02:31;99213.28;;;12.94;59.81
50087;BME280;35967;50.718;7.050;2024-03-02T15:12:37;99205.03;;;13.04;59.25
50087;BME280;35967;50.718;7.050;2024-03-02T15:22:41;99194.03;;;13.16;60.08
50087;BME280;35967;50.718;7.050;2024-03-02T15:32:46;99193.78;;;13.05;58.65
50087;BME280;35967;50.718;7.050;2024-03-02T15:42:49;99185.28;;;13.03;58.61
50087;BME280;35967;50.718;7.050;2024-03-02T15:52:54;99184.56;;;13.01;58.36
50087;BME280;35967;50.718;7.050;2024-03-02T16:02:58;99180.66;;;12.93;58.27
50087;BME280;35967;50.718;7.050;2024-03-02T16:13:03;99177.97;;;12.95;58.76
50087;BME280;35967;50.718;7.050;2024-03-02T16:23:06;99177.31;;;12.91;58.65
50087;BME280;35967;50.718;7.050;2024-03-02T16:33:11;99174.88;;;12.88;58.61
50087;BME280;35967;50.718;7.050;2024-03-02T16:43:14;99173.41;;;12.84;58.42
50087;BME280;35967;50.718;7.050;2024-03-02T16:53:19;99180.41;;;12.82;58.72
50087;BME280;35967;50.718;7.050;2024-03-02T17:03:22;99186.72;;;12.76;59.13
50087;BME280;35967;50.718;7.050;2024-03-02T17:13:27;99196.41;;;12.73;60.24
50087;BME280;35967;50.718;7.050;2024-03-02T17:23:31;99203.38;;;12.71;60.04
50087;BME280;35967;50.718;7.050;2024-03-02T17:33:35;99207.06;;;12.67;59.37
50087;BME280;35967;50.718;7.050;2024-03-02T17:43:38;99208.88;;;12.65;58.65
50087;BME280;35967;50.718;7.050;2024-03-02T17:53:43;99213.13;;;12.66;58.74
50087;BME280;35967;50.718;7.050;2024-03-02T18:03:46;99217.31;;;12.68;57.77
50087;BME280;35967;50.718;7.050;2024-03-02T18:13:51;99215.63;;;12.67;57.97
50087;BME280;35967;50.718;7.050;2024-03-02T18:23:54;99225.38;;;12.62;58.71
50087;BME280;35967;50.718;7.050;2024-03-02T18:33:59;99235.94;;;12.57;59.07
50087;BME280;35967;50.718;7.050;2024-03-02T18:44:03;99232.56;;;12.57;59.45
50087;BME280;35967;50.718;7.050;2024-03-02T18:54:08;99232.19;;;12.47;60.01
50087;BME280;35967;50.718;7.050;2024-03-02T19:04:13;99222.44;;;12.36;60.17
50087;BME280;35967;50.718;7.050;2024-03-02T19:14:18;99211.63;;;12.29;60.58
50087;BME280;35967;50.718;7.050;2024-03-02T19:24:21;99204.03;;;12.26;61.06
50087;BME280;35967;50.718;7.050;2024-03-02T19:34:25;99192.19;;;12.22;60.99
50087;BME280;35967;50.718;7.050;2024-03-02T19:44:28;99190.47;;;12.23;61.24
50087;BME280;35967;50.718;7.050;2024-03-02T19:54:36;99176.91;;;12.19;61.88
50087;BME280;35967;50.718;7.050;2024-03-02T20:04:39;99168.53;;;12.14;61.95
50087;BME280;35967;50.718;7.050;2024-03-02T20:14:45;99155.41;;;12.03;62.56
50087;BME280;35967;50.718;7.050;2024-03-02T20:24:48;99144.75;;;12.09;63.42
50087;BME280;35967;50.718;7.050;2024-03-02T20:36:06;99137.78;;;11.93;64.11
50087;BME280;35967;50.718;7.050;2024-03-02T20:46:14;99144.28;;;11.84;65.23
50087;BME280;35967;50.718;7.050;2024-03-02T20:56:19;99135.19;;;11.77;65.28
50087;BME280;35967;50.718;7.050;2024-03-02T21:06:22;99125.94;;;11.73;65.45
50087;BME280;35967;50.718;7.050;2024-03-02T21:16:28;99131.31;;;11.68;66.10
50087;BME280;35967;50.718;7.050;2024-03-02T21:26:30;99141.16;;;11.78;65.22
50087;BME280;35967;50.718;7.050;2024-03-02T21:36:35;99140.81;;;11.68;66.01
50087;BME280;35967;50.718;7.050;2024-03-02T21:46:38;99157.41;;;11.62;66.91
50087;BME280;35967;50.718;7.050;2024-03-02T21:56:42;99171.84;;;11.49;68.00
50087;BME280;35967;50.718;7.050;2024-03-02T22:06:48;99182.38;;;11.44;68.61
50087;BME280;35967;50.718;7.050;2024-03-02T22:16:52;99218.91;;;11.52;68.10
50087;BME280;35967;50.718;7.050;2024-03-02T22:26:56;99212.84;;;11.54;68.64
50087;BME280;35967;50.718;7.050;2024-03-02T22:37:00;99201.38;;;11.42;68.90
50087;BME280;35967;50.718;7.050;2024-03-02T22:47:04;99183.28;;;11.26;69.98
50087;BME280;35967;50.718;7.050;2024-03-02T22:57:08;99147.31;;;11.24;70.57
50087;BME280;35967;50.718;7.050;2024-03-02T23:07:18;99132.28;;;11.32;71.46
50087;BME280;35967;50.718;7.050;2024-03-02T23:17:24;99151.22;;;11.31;72.50
50087;BME280;35967;50.718;7.050;2024-03-02T23:27:26;99138.66;;;11.25;72.92
50087;BME280;35967;50.718;7.050;2024-03-02T23:37:31;99123.34;;;11.22;73.63
50087;BME280;35967;50.718;7.050;2024-03-02T23:47:34;99119.19;;;11.19;73.65
50087;BME280;35967;50.718;7.050;2024-03-02T23:57:38;99100.09;;;11.24;74.11
